Carlsbad (CRQ/KCRQ)

Map

Destinations

Information

Location
Carlsbad, CA
Local Time
22:45 / 10:45 pm
GMT Time
05:45 / 5:45 am
Gates
Unassigned
No FAA reported delays
METAR KCRQ 190453Z AUTO 17003KT 8SM CLR 19/18 A2992 RMK AO2 SLP130 T01940183
TAF KCRQ 190438Z 1905/1924 VRB04KT P6SM SCT007 FM190600 VRB03KT 4SM BR OVC007 FM191700 VRB04KT P6SM SCT010 FM191900 25008KT P6SM FEW200